createdAt,value
2023-03-26T00:00:00.133Z,2.83
2023-03-26T00:02:29.675Z,2.40
2023-03-26T00:04:58.035Z,3.10
2023-03-26T00:07:26.965Z,3.30
2023-03-26T00:09:55.843Z,3.70
2023-03-26T00:12:24.020Z,3.13
2023-03-26T00:14:52.752Z,2.03
2023-03-26T00:17:22.589Z,2.60
2023-03-26T00:19:50.806Z,3.73
2023-03-26T00:22:18.994Z,3.67
2023-03-26T00:24:49.341Z,3.30
2023-03-26T00:27:17.548Z,2.43
2023-03-26T00:29:48.114Z,2.77
2023-03-26T00:32:16.790Z,3.00
2023-03-26T00:34:46.677Z,2.97
2023-03-26T00:37:15.049Z,2.70
2023-03-26T00:39:44.553Z,2.93
2023-03-26T00:42:14.937Z,2.20
2023-03-26T00:44:43.167Z,2.93
2023-03-26T00:47:11.335Z,4.50
2023-03-26T00:49:39.689Z,2.93
2023-03-26T00:52:09.880Z,3.60
2023-03-26T00:54:38.040Z,3.33
2023-03-26T00:57:06.771Z,3.33
2023-03-26T00:59:35.850Z,3.27
2023-03-26T01:02:04.574Z,2.70
2023-03-26T01:04:35.099Z,2.73
2023-03-26T01:07:09.983Z,3.20
2023-03-26T01:09:45.181Z,2.10
2023-03-26T01:12:17.039Z,3.63
2023-03-26T01:14:45.734Z,2.60
2023-03-26T01:17:14.305Z,3.40
2023-03-26T01:19:50.557Z,3.63
2023-03-26T01:22:20.350Z,2.67
2023-03-26T01:24:53.859Z,2.80
2023-03-26T01:27:31.883Z,3.03
2023-03-26T01:30:05.055Z,2.47
2023-03-26T01:32:52.738Z,2.73
2023-03-26T01:35:30.492Z,3.13
2023-03-26T01:38:11.860Z,3.07
2023-03-26T01:40:49.416Z,2.87
2023-03-26T01:43:29.451Z,2.83
2023-03-26T01:46:00.927Z,3.90
2023-03-26T01:48:36.157Z,2.50
2023-03-26T01:51:05.376Z,2.63
2023-03-26T01:53:35.946Z,2.67
2023-03-26T01:56:12.722Z,3.03
2023-03-26T01:58:55.558Z,3.13
2023-03-26T02:01:30.132Z,3.40
2023-03-26T02:04:03.465Z,3.03
2023-03-26T02:06:40.076Z,4.30
2023-03-26T02:09:12.545Z,3.00
2023-03-26T02:11:43.067Z,3.77
2023-03-26T02:14:11.769Z,2.60
2023-03-26T02:16:40.101Z,2.80
2023-03-26T02:19:15.324Z,3.30
2023-03-26T02:21:43.699Z,2.70
2023-03-26T02:24:11.829Z,3.50
2023-03-26T02:26:41.318Z,2.50
2023-03-26T02:29:10.015Z,2.40
2023-03-26T02:31:38.247Z,4.10
2023-03-26T02:34:06.550Z,3.00
2023-03-26T02:36:35.782Z,3.20
2023-03-26T02:39:04.846Z,2.77
2023-03-26T02:41:32.983Z,2.57
2023-03-26T02:44:02.757Z,3.10
2023-03-26T02:46:30.968Z,2.80
2023-03-26T02:48:59.218Z,2.70
2023-03-26T02:51:27.539Z,3.23
2023-03-26T02:53:55.968Z,2.50
2023-03-26T02:56:24.175Z,3.43
2023-03-26T02:58:52.452Z,3.20
2023-03-26T03:01:22.741Z,2.73
2023-03-26T03:03:51.267Z,2.10
2023-03-26T03:06:19.829Z,3.10
2023-03-26T03:08:48.009Z,3.33
2023-03-26T03:11:17.857Z,2.40
2023-03-26T03:13:46.635Z,2.50
2023-03-26T03:16:15.101Z,2.87
2023-03-26T03:18:44.869Z,2.40
2023-03-26T03:21:13.042Z,3.60
2023-03-26T03:23:41.216Z,3.00
2023-03-26T03:26:15.497Z,2.50
2023-03-26T03:28:45.083Z,2.57
2023-03-26T03:31:13.407Z,2.47
2023-03-26T03:33:42.903Z,2.53
2023-03-26T03:36:21.048Z,2.47
2023-03-26T03:38:51.653Z,2.43
2023-03-26T03:41:19.877Z,1.80
2023-03-26T03:43:48.215Z,2.07
2023-03-26T03:46:16.455Z,2.70
2023-03-26T03:48:49.485Z,2.57
2023-03-26T03:51:19.623Z,2.30
2023-03-26T03:53:49.310Z,2.33
2023-03-26T03:56:19.292Z,3.50
2023-03-26T03:58:47.647Z,2.33
2023-03-26T04:01:16.856Z,2.63
2023-03-26T04:03:46.434Z,2.53
2023-03-26T04:06:18.896Z,2.43
2023-03-26T04:08:48.671Z,2.70
2023-03-26T04:11:16.877Z,1.97
2023-03-26T04:13:45.665Z,1.70
2023-03-26T04:16:13.914Z,2.30
2023-03-26T04:18:42.287Z,2.20
2023-03-26T04:21:12.465Z,2.40
2023-03-26T04:23:42.247Z,2.20
2023-03-26T04:26:16.716Z,2.43
2023-03-26T04:28:48.574Z,3.47
2023-03-26T04:31:24.115Z,2.37
2023-03-26T04:33:54.404Z,2.37
2023-03-26T04:36:27.084Z,2.20
2023-03-26T04:38:58.291Z,2.50
2023-03-26T04:41:28.992Z,3.73
2023-03-26T04:43:57.331Z,2.67
2023-03-26T04:46:25.746Z,2.43
2023-03-26T04:48:55.569Z,2.87
2023-03-26T04:51:27.870Z,2.53
2023-03-26T04:53:58.908Z,2.90
2023-03-26T04:56:37.401Z,2.70
2023-03-26T04:59:06.176Z,2.40
2023-03-26T05:01:37.859Z,3.80
2023-03-26T05:04:06.598Z,1.80
2023-03-26T05:06:35.309Z,2.27
2023-03-26T05:09:04.109Z,2.87
2023-03-26T05:11:33.601Z,2.10
2023-03-26T05:14:01.714Z,2.20
2023-03-26T05:16:31.673Z,2.87
2023-03-26T05:19:00.039Z,2.27
2023-03-26T05:21:28.273Z,2.57
2023-03-26T05:23:56.480Z,2.30
2023-03-26T05:26:24.799Z,2.97
2023-03-26T05:28:54.335Z,2.80
2023-03-26T05:31:22.784Z,2.83
2023-03-26T05:33:51.771Z,3.60
2023-03-26T05:36:20.332Z,2.47
2023-03-26T05:38:49.890Z,2.57
2023-03-26T05:41:18.352Z,2.77
2023-03-26T05:43:47.746Z,2.30
2023-03-26T05:46:18.062Z,3.00
2023-03-26T05:48:46.607Z,2.40
2023-03-26T05:51:16.012Z,3.53
2023-03-26T05:53:44.512Z,2.63
2023-03-26T05:56:13.944Z,3.07
2023-03-26T05:58:43.558Z,2.53
2023-03-26T06:01:16.950Z,2.40
2023-03-26T06:03:48.099Z,2.80
2023-03-26T06:06:18.471Z,2.37
2023-03-26T06:08:48.788Z,2.40
2023-03-26T06:11:31.327Z,2.70
2023-03-26T06:13:59.601Z,2.33
2023-03-26T06:16:28.380Z,2.73
2023-03-26T06:18:58.773Z,3.23
2023-03-26T06:21:27.331Z,2.70
2023-03-26T06:23:56.427Z,3.20
2023-03-26T06:26:24.651Z,2.67
2023-03-26T06:28:52.866Z,3.27
2023-03-26T06:31:21.274Z,3.23
2023-03-26T06:33:49.694Z,2.60
2023-03-26T06:36:19.259Z,2.43
2023-03-26T06:38:47.542Z,3.03
2023-03-26T06:41:15.811Z,2.50
2023-03-26T06:43:44.042Z,2.73
2023-03-26T06:46:13.212Z,3.30
2023-03-26T06:48:42.506Z,2.63
2023-03-26T06:51:11.013Z,2.53
2023-03-26T06:53:40.630Z,3.13
2023-03-26T06:56:09.977Z,3.10
2023-03-26T06:58:38.119Z,3.23
2023-03-26T07:01:06.849Z,3.23
2023-03-26T07:03:35.174Z,3.27
2023-03-26T07:06:03.523Z,2.73
2023-03-26T07:08:32.013Z,2.20
2023-03-26T07:11:01.682Z,2.60
2023-03-26T07:13:29.879Z,2.60
2023-03-26T07:15:58.133Z,3.27
2023-03-26T07:18:26.372Z,3.00
2023-03-26T07:20:55.480Z,3.07
2023-03-26T07:23:24.326Z,2.70
2023-03-26T07:25:53.313Z,3.57
2023-03-26T07:28:34.320Z,2.83
2023-03-26T07:31:16.367Z,2.70
2023-03-26T07:33:50.468Z,2.13
2023-03-26T07:36:26.069Z,3.87
2023-03-26T07:39:06.370Z,2.90
2023-03-26T07:41:42.860Z,2.57
2023-03-26T07:44:30.650Z,3.30
2023-03-26T07:47:01.800Z,3.20
2023-03-26T07:49:31.395Z,2.77
2023-03-26T07:52:01.468Z,2.70
2023-03-26T07:54:30.870Z,2.50
2023-03-26T07:57:04.429Z,2.60
2023-03-26T07:59:38.097Z,2.23
2023-03-26T08:02:25.324Z,2.30
2023-03-26T08:05:05.456Z,2.97
2023-03-26T08:07:45.744Z,2.80
2023-03-26T08:10:18.611Z,2.90
2023-03-26T08:12:56.308Z,2.80
2023-03-26T08:15:31.929Z,2.90
2023-03-26T08:18:10.190Z,2.70
2023-03-26T08:20:47.825Z,3.00
2023-03-26T08:23:23.437Z,2.83
2023-03-26T08:26:02.305Z,3.17
2023-03-26T08:28:52.702Z,2.60
2023-03-26T08:31:33.347Z,3.10
2023-03-26T08:34:01.912Z,2.80
2023-03-26T08:36:30.169Z,2.37
2023-03-26T08:38:59.447Z,3.33
2023-03-26T08:42:00.708Z,3.43
2023-03-26T08:45:02.451Z,2.57
2023-03-26T08:48:11.866Z,2.87
2023-03-26T08:51:03.275Z,3.37
2023-03-26T08:54:10.377Z,2.60
2023-03-26T15:40:07.969Z,0.70
2023-03-26T15:42:46.548Z,0.70
2023-03-26T15:45:30.705Z,0.80
2023-03-26T15:48:12.858Z,0.60
2023-03-26T15:50:55.821Z,0.80
2023-03-26T15:53:41.166Z,0.80
2023-03-26T15:56:23.196Z,0.87
2023-03-26T15:58:58.473Z,1.10
2023-03-26T16:01:38.313Z,0.70
2023-03-26T16:04:20.748Z,0.80
2023-03-26T16:06:58.429Z,0.87
2023-03-26T16:09:42.144Z,0.60
2023-03-26T16:12:34.222Z,0.93
2023-03-26T16:15:25.843Z,0.80
2023-03-26T16:18:26.669Z,1.00
2023-03-26T16:20:57.191Z,1.20
2023-03-26T16:23:30.074Z,0.93
2023-03-26T16:26:10.470Z,1.00
2023-03-26T16:29:17.939Z,1.10
2023-03-26T16:32:16.299Z,1.07
2023-03-26T16:34:52.769Z,0.80
2023-03-26T16:37:45.654Z,0.93
2023-03-26T16:40:34.423Z,1.33
2023-03-26T16:43:41.388Z,1.10
2023-03-26T16:46:20.634Z,1.00
2023-03-26T16:48:57.502Z,0.97
2023-03-26T16:51:34.334Z,0.80
2023-03-26T16:54:13.450Z,0.90
2023-03-26T16:56:49.956Z,0.93
2023-03-26T16:59:40.575Z,1.00
2023-03-26T17:02:21.799Z,1.20
2023-03-26T17:04:53.604Z,4.00
2023-03-26T17:07:25.159Z,1.23
2023-03-26T17:10:03.756Z,1.60
2023-03-26T17:12:41.119Z,1.40
2023-03-26T17:15:20.734Z,1.60
2023-03-26T17:18:04.114Z,1.70
2023-03-26T17:20:38.552Z,1.70
2023-03-26T17:23:23.956Z,4.50
2023-03-26T17:26:03.993Z,6.17
2023-03-26T17:28:50.888Z,1.10
2023-03-26T17:31:28.433Z,1.00
2023-03-26T17:34:36.484Z,1.30
2023-03-26T17:37:06.397Z,1.60
2023-03-26T17:40:37.985Z,1.43
2023-03-26T17:43:11.168Z,1.40
2023-03-26T17:45:41.984Z,1.40
2023-03-26T17:48:17.655Z,1.53
2023-03-26T17:50:54.908Z,1.90
2023-03-26T17:53:29.358Z,6.33
2023-03-26T17:56:03.087Z,1.87
2023-03-26T17:58:36.021Z,1.47
2023-03-26T18:01:18.752Z,1.67
2023-03-26T18:03:50.623Z,1.40
2023-03-26T18:06:38.110Z,1.67
2023-03-26T18:09:17.651Z,1.97
2023-03-26T18:12:01.601Z,1.77
2023-03-26T18:14:53.324Z,2.03
2023-03-26T18:17:21.569Z,2.90
2023-03-26T18:19:52.429Z,5.23
2023-03-26T18:22:27.636Z,4.47
2023-03-26T18:24:59.886Z,4.07
2023-03-26T18:27:36.513Z,4.63
2023-03-26T18:30:16.057Z,4.07
2023-03-26T18:32:52.432Z,4.17
2023-03-26T18:35:23.197Z,3.73
2023-03-26T18:37:55.796Z,3.57
2023-03-26T18:40:25.878Z,4.00
2023-03-26T18:42:56.849Z,3.30
2023-03-26T18:45:28.884Z,3.80
2023-03-26T18:47:59.544Z,3.57
2023-03-26T18:50:29.541Z,4.57
2023-03-26T18:53:01.042Z,3.57
2023-03-26T18:55:30.314Z,3.23
2023-03-26T18:57:58.439Z,3.97
2023-03-26T19:00:30.127Z,3.50
2023-03-26T19:03:05.986Z,3.90
2023-03-26T19:05:35.725Z,4.80
2023-03-26T19:08:06.684Z,4.70
2023-03-26T19:10:35.078Z,5.60
2023-03-26T19:13:04.084Z,7.57
2023-03-26T19:15:34.434Z,7.13
2023-03-26T19:18:09.673Z,6.20
2023-03-26T19:20:42.229Z,6.93
2023-03-26T19:23:16.064Z,5.53
2023-03-26T19:25:48.471Z,5.30
2023-03-26T19:28:22.780Z,4.83
2023-03-26T19:30:57.451Z,5.90
2023-03-26T19:33:34.395Z,4.50
2023-03-26T19:36:05.829Z,5.13
2023-03-26T19:38:44.300Z,4.80
2023-03-26T19:41:22.640Z,4.80
2023-03-26T19:43:51.763Z,4.90
2023-03-26T19:46:22.716Z,4.73
2023-03-26T19:48:53.274Z,3.27
2023-03-26T19:51:24.163Z,5.63
2023-03-26T19:54:00.227Z,3.33
2023-03-26T19:56:28.725Z,3.37
2023-03-26T19:58:58.194Z,3.87
2023-03-26T20:01:28.070Z,2.93
2023-03-26T20:03:59.128Z,3.43
2023-03-26T20:06:42.461Z,2.90
2023-03-26T20:09:14.139Z,2.70
2023-03-26T20:11:42.783Z,2.60
2023-03-26T20:14:15.771Z,3.10
2023-03-26T20:19:32.419Z,2.33
2023-03-26T20:22:00.627Z,2.97
2023-03-26T20:24:30.400Z,2.80
2023-03-26T20:26:58.544Z,2.03
2023-03-26T20:29:28.280Z,3.13
2023-03-26T20:31:56.693Z,3.07
2023-03-26T20:34:29.850Z,2.00
2023-03-26T20:37:04.173Z,2.10
2023-03-26T20:39:33.769Z,2.20
2023-03-26T20:42:01.922Z,2.33
2023-03-26T20:44:30.753Z,2.40
2023-03-26T20:46:59.117Z,11.17
2023-03-26T20:49:29.427Z,3.53
2023-03-26T20:51:57.611Z,4.63
2023-03-26T20:54:27.265Z,3.30
2023-03-26T20:56:58.055Z,2.80
2023-03-26T20:59:27.803Z,2.10
2023-03-26T21:01:59.070Z,2.20
2023-03-26T21:04:27.844Z,2.40
2023-03-26T21:07:06.617Z,2.63
2023-03-26T21:09:39.849Z,2.20
2023-03-26T21:12:54.984Z,1.87
2023-03-26T21:15:46.432Z,2.20
2023-03-26T21:22:03.382Z,2.10
2023-03-26T21:24:52.792Z,2.17
2023-03-26T21:27:30.152Z,2.93
2023-03-26T21:29:59.941Z,2.07
2023-03-26T21:32:28.880Z,2.33
2023-03-26T21:34:59.028Z,1.80
2023-03-26T21:37:28.804Z,1.70
2023-03-26T21:39:57.728Z,1.63
2023-03-26T21:42:29.320Z,1.73
2023-03-26T21:44:58.185Z,2.40
2023-03-26T21:47:27.028Z,1.90
2023-03-26T21:49:55.792Z,2.33
2023-03-26T21:52:25.203Z,2.00
2023-03-26T21:54:54.427Z,2.20
2023-03-26T21:57:42.345Z,2.17
2023-03-26T22:00:16.283Z,2.10
2023-03-26T22:02:55.489Z,1.90
2023-03-26T22:05:31.087Z,1.70
2023-03-26T22:08:02.897Z,1.57
2023-03-26T22:10:32.019Z,1.80
2023-03-26T22:13:01.646Z,2.17
2023-03-26T22:15:31.073Z,1.87
2023-03-26T22:18:03.190Z,2.03
2023-03-26T22:20:31.526Z,2.50
2023-03-26T22:23:00.875Z,2.20
2023-03-26T22:25:29.061Z,1.67
2023-03-26T22:27:57.387Z,1.70
2023-03-26T22:30:27.213Z,2.47
2023-03-26T22:32:55.653Z,1.60
2023-03-26T22:35:24.142Z,2.47
2023-03-26T22:37:52.634Z,2.27
2023-03-26T22:40:29.413Z,2.03
2023-03-26T22:42:57.645Z,2.37
2023-03-26T22:45:27.715Z,2.10
2023-03-26T22:48:03.456Z,2.30
2023-03-26T22:50:32.958Z,2.93
2023-03-26T22:53:01.576Z,2.10
2023-03-26T22:55:30.214Z,2.07
2023-03-26T22:57:58.476Z,2.13
2023-03-26T23:00:28.135Z,1.83
2023-03-26T23:03:00.242Z,1.83
2023-03-26T23:05:29.311Z,1.57
2023-03-26T23:07:58.176Z,2.10
2023-03-26T23:10:26.494Z,2.50
2023-03-26T23:12:54.601Z,1.60
2023-03-26T23:15:25.833Z,2.23
2023-03-26T23:17:55.397Z,2.03
2023-03-26T23:20:23.661Z,1.90
2023-03-26T23:22:52.329Z,1.90
2023-03-26T23:25:20.991Z,1.73
2023-03-26T23:27:50.541Z,2.20
2023-03-26T23:30:19.214Z,1.60
2023-03-26T23:32:47.934Z,1.73
2023-03-26T23:35:17.561Z,1.20
2023-03-26T23:37:45.791Z,2.03
2023-03-26T23:40:14.563Z,1.80
2023-03-26T23:42:42.687Z,1.80
2023-03-26T23:45:12.281Z,2.00
2023-03-26T23:47:42.243Z,1.73
2023-03-26T23:50:11.522Z,1.80
2023-03-26T23:52:41.121Z,1.40
2023-03-26T23:55:09.982Z,1.43
2023-03-26T23:57:38.174Z,1.83
